Time;durP1;ratioP1;P1;durP2;ratioP2;P2;SDS_P1;SDS_P2;PMS_P1;PMS_P2;Temp;Humidity;BMP_temperature;BMP_pressure;BME280_temperature;BME280_humidity;BME280_pressure;Samples;Min_cycle;Max_cycle;Signal;HPM_P1;HPM_P2
2022/09/14 00:01:47;;;;;;;3.17;2.27;;;17.30;90.50;;;;;;1977699;72;20982;-62
2022/09/14 00:04:18;;;;;;;2.75;2.05;;;17.30;90.60;;;;;;1977665;72;21049;-62
2022/09/14 00:06:48;;;;;;;2.50;2.30;;;17.30;90.50;;;;;;1977742;72;21092;-62
2022/09/14 00:09:20;;;;;;;2.98;2.10;;;17.30;90.50;;;;;;1977787;72;21009;-62
2022/09/14 00:11:50;;;;;;;4.45;2.15;;;17.30;90.40;;;;;;1977818;72;21091;-62
2022/09/14 00:14:20;;;;;;;2.47;2.17;;;17.20;90.40;;;;;;1977808;72;21033;-62
2022/09/14 00:16:50;;;;;;;3.20;1.98;;;17.20;90.60;;;;;;1977845;72;21002;-62
2022/09/14 00:19:25;;;;;;;7.12;2.52;;;17.20;90.30;;;;;;1977745;72;21022;-62
2022/09/14 00:21:57;;;;;;;2.52;2.02;;;17.20;90.30;;;;;;1977998;72;21029;-62
2022/09/14 00:24:33;;;;;;;2.30;2.10;;;17.10;90.40;;;;;;1977864;72;21092;-62
2022/09/14 00:27:02;;;;;;;2.52;2.33;;;17.10;90.50;;;;;;1977838;72;21429;-61
2022/09/14 00:29:32;;;;;;;4.42;2.20;;;17.10;90.60;;;;;;1977856;72;21006;-61
2022/09/14 00:32:01;;;;;;;3.25;2.40;;;17.20;90.60;;;;;;1977773;72;21005;-61
2022/09/14 00:34:30;;;;;;;5.62;2.37;;;17.20;90.60;;;;;;1977748;72;21006;-61
2022/09/14 00:36:59;;;;;;;2.77;2.15;;;17.20;90.70;;;;;;1977742;72;20998;-62
2022/09/14 00:39:29;;;;;;;2.87;2.02;;;17.30;90.60;;;;;;1977853;72;21009;-61
2022/09/14 00:41:58;;;;;;;2.60;2.40;;;17.20;90.50;;;;;;1977894;72;21091;-61
2022/09/14 00:44:30;;;;;;;3.62;2.37;;;17.30;90.60;;;;;;1977677;72;20998;-61
2022/09/14 00:47:02;;;;;;;5.17;2.58;;;17.30;90.60;;;;;;1977716;72;21034;-61
2022/09/14 00:49:33;;;;;;;2.55;2.30;;;17.20;90.50;;;;;;1977869;72;21079;-61
2022/09/14 00:52:23;;;;;;;2.60;2.40;;;17.20;90.60;;;;;;1977325;72;20985;-62
2022/09/14 00:54:55;;;;;;;2.30;2.00;;;17.10;90.80;;;;;;1977855;72;21005;-61
2022/09/14 00:57:27;;;;;;;3.80;2.35;;;17.10;90.80;;;;;;1977733;72;21107;-61
2022/09/14 00:59:57;;;;;;;4.35;2.12;;;17.20;90.90;;;;;;1977886;72;21122;-61
2022/09/14 01:02:28;;;;;;;2.22;1.80;;;17.20;90.90;;;;;;1977903;72;21061;-62
2022/09/14 01:04:57;;;;;;;3.60;2.27;;;17.20;90.90;;;;;;1977768;72;21006;-61
2022/09/14 01:07:48;;;;;;;2.30;2.10;;;17.20;90.90;;;;;;1977833;72;21005;-62
2022/09/14 01:10:26;;;;;;;3.52;2.40;;;17.20;90.80;;;;;;1977833;72;21033;-61
2022/09/14 01:13:25;;;;;;;3.02;2.10;;;17.20;90.80;;;;;;1977885;72;21090;-61
2022/09/14 01:15:59;;;;;;;3.00;1.95;;;17.20;90.80;;;;;;1977831;72;21026;-61
2022/09/14 01:18:31;;;;;;;8.20;2.22;;;17.30;90.80;;;;;;1977781;72;21021;-61
2022/09/14 01:21:12;;;;;;;2.42;2.10;;;17.30;90.80;;;;;;1977499;72;21009;-61
2022/09/14 01:24:01;;;;;;;1.87;1.75;;;17.30;90.90;;;;;;1977716;72;21005;-62
2022/09/14 01:26:51;;;;;;;2.25;1.95;;;17.30;90.90;;;;;;1977824;72;21029;-61
2022/09/14 01:29:32;;;;;;;2.17;1.98;;;17.30;90.90;;;;;;1977905;72;21026;-61
2022/09/14 01:32:07;;;;;;;2.98;2.25;;;17.20;90.80;;;;;;1977649;72;20997;-61
2022/09/14 01:35:14;;;;;;;3.22;2.10;;;17.30;90.90;;;;;;1976495;72;21053;-61
2022/09/14 01:37:52;;;;;;;3.50;2.02;;;17.20;90.90;;;;;;1977855;72;21031;-61
2022/09/14 01:40:24;;;;;;;1.77;1.67;;;17.20;90.90;;;;;;1977810;72;21449;-61
2022/09/14 01:42:55;;;;;;;2.75;1.62;;;17.20;90.80;;;;;;1977373;72;21424;-61
2022/09/14 01:45:28;;;;;;;1.75;1.65;;;17.20;90.80;;;;;;1976839;72;21001;-61
2022/09/14 01:47:59;;;;;;;1.90;1.55;;;17.10;90.70;;;;;;1977867;72;21049;-61
2022/09/14 01:50:46;;;;;;;2.12;1.92;;;17.10;90.60;;;;;;1977865;72;21087;-61
2022/09/14 01:53:25;;;;;;;5.70;1.82;;;17.10;90.70;;;;;;1976643;72;21026;-61
2022/09/14 01:55:57;;;;;;;3.92;1.70;;;17.00;90.70;;;;;;1977857;72;21021;-61
2022/09/14 01:58:32;;;;;;;1.92;1.70;;;17.00;90.70;;;;;;1974332;71;21523;-61
2022/09/14 02:01:04;;;;;;;5.62;1.77;;;17.00;90.70;;;;;;1974046;72;21055;-62
2022/09/14 02:03:36;;;;;;;2.50;1.82;;;17.00;90.60;;;;;;1973977;73;20998;-62
2022/09/14 02:06:14;;;;;;;5.45;1.82;;;16.90;90.60;;;;;;1974067;72;21021;-62
2022/09/14 02:08:43;;;;;;;2.58;1.65;;;16.90;90.60;;;;;;1974192;72;21452;-62
2022/09/14 02:11:13;;;;;;;2.22;2.02;;;16.90;90.70;;;;;;1974029;73;21064;-62
2022/09/14 02:13:42;;;;;;;1.90;1.55;;;16.90;90.70;;;;;;1974043;71;21010;-62
2022/09/14 02:16:11;;;;;;;2.10;1.50;;;16.90;90.70;;;;;;1974118;73;21071;-62
2022/09/14 02:18:42;;;;;;;2.08;1.72;;;16.90;90.70;;;;;;1974140;73;20966;-62
2022/09/14 02:21:17;;;;;;;2.98;2.00;;;16.90;90.70;;;;;;1974001;73;21672;-62
2022/09/14 02:23:48;;;;;;;4.10;1.42;;;16.90;90.70;;;;;;1974252;73;21486;-62
2022/09/14 02:26:19;;;;;;;1.80;1.50;;;16.90;90.60;;;;;;1973926;71;21081;-62
2022/09/14 02:28:54;;;;;;;1.40;1.30;;;16.90;90.60;;;;;;1974111;73;21080;-62
2022/09/14 02:31:32;;;;;;;1.85;1.72;;;16.90;90.60;;;;;;1973556;71;21491;-62
2022/09/14 02:34:20;;;;;;;2.40;1.72;;;16.90;90.60;;;;;;1974217;73;21440;-62
2022/09/14 02:36:58;;;;;;;4.58;1.80;;;16.90;90.60;;;;;;1973969;73;21018;-62
2022/09/14 02:39:39;;;;;;;1.70;1.60;;;16.80;90.30;;;;;;1974088;72;21421;-62
2022/09/14 02:42:26;;;;;;;2.25;1.70;;;16.80;90.30;;;;;;1973787;72;21001;-62
2022/09/14 02:45:17;;;;;;;2.52;1.67;;;16.70;90.40;;;;;;1973903;72;21472;-62
2022/09/14 02:48:14;;;;;;;6.65;2.37;;;16.70;90.60;;;;;;1974111;73;21513;-62
2022/09/14 02:50:58;;;;;;;7.35;3.92;;;16.60;90.70;;;;;;1974114;73;21079;-62
2022/09/14 02:53:36;;;;;;;5.47;2.95;;;16.60;90.70;;;;;;1973952;72;21099;-62
2022/09/14 02:56:09;;;;;;;6.67;2.98;;;16.70;90.70;;;;;;1974112;72;21045;-62
2022/09/14 02:58:41;;;;;;;2.40;1.87;;;16.70;90.70;;;;;;1975956;72;21128;-62
2022/09/14 03:01:13;;;;;;;6.62;3.80;;;16.60;90.50;;;;;;1977705;72;21000;-62
2022/09/14 03:03:42;;;;;;;6.20;4.25;;;16.60;90.50;;;;;;1976339;72;21510;-62
2022/09/14 03:06:12;;;;;;;7.03;5.08;;;16.50;90.80;;;;;;1977623;72;21065;-63
2022/09/14 03:08:41;;;;;;;4.40;1.87;;;16.50;90.40;;;;;;1977749;72;20998;-62
2022/09/14 03:11:11;;;;;;;2.30;1.50;;;16.50;90.40;;;;;;1977770;72;20997;-62
2022/09/14 03:13:41;;;;;;;2.77;1.80;;;16.40;90.40;;;;;;1977654;72;21079;-62
2022/09/14 03:16:12;;;;;;;2.33;1.32;;;16.40;90.40;;;;;;1977765;72;21059;-62
2022/09/14 03:18:42;;;;;;;2.15;1.80;;;16.40;90.40;;;;;;1977822;72;21006;-62
2022/09/14 03:21:16;;;;;;;3.55;1.70;;;16.40;90.50;;;;;;1977636;72;21049;-62
2022/09/14 03:23:50;;;;;;;2.62;1.40;;;16.40;90.50;;;;;;1977832;72;21075;-63
2022/09/14 03:26:22;;;;;;;5.47;2.40;;;16.40;90.40;;;;;;1977861;72;21175;-63
2022/09/14 03:28:53;;;;;;;2.40;1.62;;;16.40;90.30;;;;;;1977718;72;21006;-62
2022/09/14 03:31:22;;;;;;;3.08;1.60;;;16.40;90.30;;;;;;1977801;72;21073;-62
2022/09/14 03:33:56;;;;;;;2.25;1.87;;;16.40;90.30;;;;;;1977692;72;21005;-62
2022/09/14 03:36:27;;;;;;;1.70;1.47;;;16.40;90.40;;;;;;1977677;72;21017;-62
2022/09/14 03:38:58;;;;;;;2.02;1.45;;;16.50;90.30;;;;;;1977768;72;21063;-62
2022/09/14 03:41:27;;;;;;;3.02;1.72;;;16.50;90.30;;;;;;1977816;72;21060;-61
2022/09/14 03:43:56;;;;;;;2.85;1.57;;;16.50;90.40;;;;;;1977986;72;21486;-62
2022/09/14 03:46:26;;;;;;;2.83;1.85;;;16.50;90.40;;;;;;1977674;72;21010;-62
2022/09/14 03:48:55;;;;;;;3.22;2.10;;;16.60;90.40;;;;;;1977794;72;21009;-62
2022/09/14 03:51:24;;;;;;;2.92;2.00;;;16.60;90.60;;;;;;1977754;72;21095;-61
2022/09/14 03:53:54;;;;;;;4.53;2.40;;;16.60;90.70;;;;;;1977862;72;20970;-62
2022/09/14 03:56:23;;;;;;;3.52;1.60;;;16.70;90.70;;;;;;1977856;72;21091;-62
2022/09/14 03:58:53;;;;;;;2.50;1.67;;;16.80;90.70;;;;;;1976537;72;21183;-62
2022/09/14 04:01:23;;;;;;;3.72;1.72;;;16.80;90.60;;;;;;1974021;73;21021;-62
2022/09/14 04:03:52;;;;;;;2.02;1.60;;;16.90;90.50;;;;;;1974033;73;21076;-62
2022/09/14 04:06:21;;;;;;;2.20;2.00;;;16.90;90.30;;;;;;1974055;73;21076;-62
2022/09/14 04:08:51;;;;;;;5.17;1.80;;;16.90;90.30;;;;;;1974138;71;21059;-62
2022/09/14 04:11:22;;;;;;;1.50;1.37;;;17.00;90.20;;;;;;1974023;72;21006;-62
2022/09/14 04:13:52;;;;;;;2.35;1.50;;;17.00;90.10;;;;;;1974029;73;21006;-61
2022/09/14 04:16:22;;;;;;;2.90;1.67;;;17.10;90.00;;;;;;1974033;73;20998;-62
2022/09/14 04:18:51;;;;;;;2.95;1.57;;;17.10;89.80;;;;;;1974050;71;21005;-62
2022/09/14 04:21:23;;;;;;;4.67;1.92;;;17.10;89.70;;;;;;1974101;73;21010;-61
2022/09/14 04:23:56;;;;;;;8.03;2.15;;;17.20;89.50;;;;;;1974113;73;21084;-62
2022/09/14 04:26:28;;;;;;;2.67;2.40;;;17.20;89.30;;;;;;1974034;73;21071;-62
2022/09/14 04:28:58;;;;;;;3.30;2.40;;;17.30;89.00;;;;;;1974017;72;21033;-62
2022/09/14 04:31:28;;;;;;;6.90;3.42;;;17.30;88.90;;;;;;1973944;73;21519;-62
2022/09/14 04:33:57;;;;;;;4.50;2.75;;;17.30;88.50;;;;;;1973963;73;21044;-62
2022/09/14 04:36:29;;;;;;;2.30;2.10;;;17.30;88.60;;;;;;1973996;73;21428;-62
2022/09/14 04:39:00;;;;;;;2.90;2.20;;;17.40;88.70;;;;;;1974168;73;21009;-62
2022/09/14 04:41:31;;;;;;;3.47;2.10;;;17.40;88.50;;;;;;1973980;73;21067;-62
2022/09/14 04:44:01;;;;;;;2.40;2.17;;;17.50;88.10;;;;;;1974084;73;21165;-62
2022/09/14 04:46:33;;;;;;;4.25;2.05;;;17.50;87.90;;;;;;1974126;73;21087;-62
2022/09/14 04:49:03;;;;;;;4.10;2.10;;;17.50;88.00;;;;;;1974138;71;21018;-62
2022/09/14 04:51:34;;;;;;;5.10;2.20;;;17.50;88.00;;;;;;1974038;73;21002;-62
2022/09/14 04:54:05;;;;;;;12.00;4.47;;;17.50;87.90;;;;;;1974039;71;21006;-62
2022/09/14 04:56:36;;;;;;;2.40;1.60;;;17.60;87.80;;;;;;1974170;73;21567;-62
2022/09/14 04:59:05;;;;;;;1.92;1.72;;;17.60;87.60;;;;;;1973877;72;21127;-61
2022/09/14 05:01:37;;;;;;;4.47;1.75;;;17.60;87.40;;;;;;1974016;72;21034;-61
2022/09/14 05:04:08;;;;;;;4.55;2.35;;;17.70;87.20;;;;;;1973889;72;21538;-61
2022/09/14 05:06:39;;;;;;;2.52;1.67;;;17.70;86.50;;;;;;1973896;73;21018;-62
2022/09/14 05:09:13;;;;;;;2.40;1.60;;;17.70;86.50;;;;;;1973963;73;21006;-62
2022/09/14 05:11:42;;;;;;;4.17;1.80;;;17.70;86.40;;;;;;1973734;72;21009;-62
2022/09/14 05:14:13;;;;;;;6.65;2.50;;;17.70;86.30;;;;;;1974014;73;21010;-62
2022/09/14 05:16:44;;;;;;;3.80;2.05;;;17.70;85.80;;;;;;1973954;73;21076;-62
2022/09/14 05:19:16;;;;;;;4.03;1.92;;;17.80;85.70;;;;;;1973951;73;20998;-62
2022/09/14 05:21:46;;;;;;;12.88;2.00;;;17.80;85.50;;;;;;1974185;73;20981;-61
2022/09/14 05:24:17;;;;;;;5.05;1.98;;;17.80;85.60;;;;;;1973899;71;21002;-62
2022/09/14 05:26:47;;;;;;;3.35;1.70;;;17.90;85.40;;;;;;1973955;73;21436;-62
2022/09/14 05:29:18;;;;;;;5.40;1.87;;;17.90;85.00;;;;;;1973837;72;21071;-61
2022/09/14 05:31:48;;;;;;;3.10;1.45;;;17.90;84.80;;;;;;1973973;73;21060;-62
2022/09/14 05:34:17;;;;;;;4.65;1.30;;;18.00;84.90;;;;;;1973919;72;21569;-62
2022/09/14 05:36:47;;;;;;;11.35;1.98;;;18.10;84.10;;;;;;1973940;73;21002;-62
2022/09/14 05:39:16;;;;;;;5.50;2.02;;;18.10;83.90;;;;;;1973953;73;20993;-61
2022/09/14 05:41:47;;;;;;;3.52;1.90;;;18.10;83.70;;;;;;1973968;73;21067;-62
2022/09/14 05:44:16;;;;;;;5.97;2.52;;;18.20;83.80;;;;;;1973994;73;21520;-61
2022/09/14 05:46:45;;;;;;;4.53;1.60;;;18.20;83.40;;;;;;1973869;72;21011;-61
2022/09/14 05:49:15;;;;;;;3.95;2.35;;;18.30;83.00;;;;;;1974036;72;21002;-62
2022/09/14 05:51:44;;;;;;;2.83;1.50;;;18.30;82.50;;;;;;1973990;72;21005;-62
2022/09/14 05:54:14;;;;;;;7.35;3.42;;;18.40;83.00;;;;;;1973954;73;20994;-62
2022/09/14 05:56:43;;;;;;;2.22;1.80;;;18.50;82.90;;;;;;1973866;73;21014;-61
2022/09/14 05:59:12;;;;;;;1.98;1.15;;;18.60;82.80;;;;;;1973864;73;21005;-61
2022/09/14 06:01:42;;;;;;;4.05;1.50;;;18.60;82.10;;;;;;1973952;71;21026;-61
2022/09/14 06:04:12;;;;;;;1.92;1.52;;;18.50;82.70;;;;;;1973886;73;20989;-61
2022/09/14 06:09:21;;;;;;;1.70;1.20;;;18.50;82.30;;;;;;1899944;75;21530;-62
2022/09/14 06:11:50;;;;;;;2.35;1.32;;;18.50;82.00;;;;;;1899771;75;21466;-61
2022/09/14 06:14:20;;;;;;;1.75;1.30;;;18.50;81.90;;;;;;1899601;75;21086;-62
2022/09/14 06:16:49;;;;;;;2.27;1.47;;;18.50;81.70;;;;;;1899764;75;21031;-62
2022/09/14 06:19:18;;;;;;;3.15;1.37;;;18.50;81.10;;;;;;1899596;75;21032;-62
2022/09/14 06:21:48;;;;;;;4.45;1.80;;;18.40;80.90;;;;;;1899592;75;21043;-62
2022/09/14 06:24:17;;;;;;;6.00;1.50;;;18.40;81.20;;;;;;1899665;75;21031;-62
2022/09/14 06:26:46;;;;;;;1.45;1.25;;;18.30;81.30;;;;;;1899567;75;21036;-62
2022/09/14 06:29:16;;;;;;;1.92;1.25;;;18.30;80.40;;;;;;1899539;75;21036;-62
2022/09/14 06:31:45;;;;;;;2.72;1.40;;;18.30;80.60;;;;;;1899634;75;21028;-61
2022/09/14 06:34:15;;;;;;;4.67;1.65;;;18.30;81.30;;;;;;1899607;75;21075;-62
2022/09/14 06:36:44;;;;;;;3.00;1.67;;;18.30;81.50;;;;;;1899747;75;21173;-61
2022/09/14 06:39:14;;;;;;;3.33;1.67;;;18.40;81.80;;;;;;1899622;75;21082;-61
2022/09/14 06:41:43;;;;;;;5.58;1.90;;;18.40;81.80;;;;;;1899682;75;21027;-61
2022/09/14 06:44:14;;;;;;;3.02;1.30;;;18.50;81.30;;;;;;1898154;75;21111;-62
2022/09/14 06:46:44;;;;;;;2.10;1.90;;;18.60;81.10;;;;;;1899621;75;21044;-61
2022/09/14 06:49:21;;;;;;;2.60;1.35;;;18.70;81.00;;;;;;1899755;75;21036;-61
2022/09/14 06:51:46;;;;;;;2.42;1.52;;;18.80;81.20;;;;;;1896735;75;21584;-61
2022/09/14 06:54:16;;;;;;;2.05;1.47;;;18.90;80.60;;;;;;1899760;75;21032;-62
2022/09/14 06:56:46;;;;;;;3.47;1.85;;;19.10;79.90;;;;;;1899591;75;21043;-62
2022/09/14 06:59:16;;;;;;;3.27;1.32;;;19.20;80.20;;;;;;1899641;75;21040;-62
2022/09/14 07:01:48;;;;;;;5.42;2.00;;;19.30;78.50;;;;;;1899699;75;21039;-62
2022/09/14 07:04:17;;;;;;;1.30;1.17;;;19.30;78.70;;;;;;1899258;74;21097;-62
2022/09/14 07:06:48;;;;;;;7.87;2.35;;;19.40;78.10;;;;;;1899585;75;21024;-62
2022/09/14 07:09:19;;;;;;;1.65;1.40;;;19.40;77.60;;;;;;1899619;75;21220;-62
2022/09/14 07:11:48;;;;;;;2.58;1.87;;;19.40;77.30;;;;;;1899662;75;21125;-62
2022/09/14 07:14:19;;;;;;;3.08;1.47;;;19.40;77.00;;;;;;1899603;75;21101;-62
2022/09/14 07:16:48;;;;;;;5.28;2.15;;;19.40;77.00;;;;;;1899788;75;20985;-61
2022/09/14 07:19:17;;;;;;;2.10;1.80;;;19.40;76.90;;;;;;1899882;75;21031;-61
2022/09/14 07:21:48;;;;;;;2.33;2.10;;;19.40;77.20;;;;;;1899690;75;21090;-62
2022/09/14 07:24:18;;;;;;;6.22;1.77;;;19.40;77.10;;;;;;1899950;75;21035;-61
2022/09/14 07:26:48;;;;;;;2.98;1.65;;;19.40;77.10;;;;;;1899813;75;21027;-62
2022/09/14 07:29:19;;;;;;;2.58;2.10;;;19.40;77.10;;;;;;1899707;75;21103;-62
2022/09/14 07:31:50;;;;;;;7.50;3.62;;;19.30;77.40;;;;;;1899698;75;21000;-62
2022/09/14 07:34:20;;;;;;;6.05;2.37;;;19.30;77.80;;;;;;1899787;75;21038;-62
2022/09/14 07:36:50;;;;;;;4.50;2.35;;;19.40;78.20;;;;;;1899769;75;21016;-62
2022/09/14 07:39:19;;;;;;;3.83;1.90;;;19.50;78.00;;;;;;1899708;75;21028;-62
2022/09/14 07:41:49;;;;;;;4.62;1.52;;;19.60;77.00;;;;;;1899747;75;21032;-62
2022/09/14 07:44:19;;;;;;;1.82;1.70;;;19.70;75.60;;;;;;1899754;75;21482;-61
2022/09/14 07:46:48;;;;;;;5.25;1.95;;;19.80;75.90;;;;;;1899731;75;20992;-62
2022/09/14 07:49:17;;;;;;;1.37;1.27;;;19.80;74.50;;;;;;1899611;75;21105;-62
2022/09/14 07:51:47;;;;;;;3.00;1.40;;;19.80;73.60;;;;;;1899696;75;21019;-62
2022/09/14 07:54:18;;;;;;;4.22;1.85;;;19.90;74.30;;;;;;1899765;75;21199;-62
2022/09/14 07:56:49;;;;;;;2.35;1.92;;;20.00;74.70;;;;;;1899720;75;21012;-62
2022/09/14 07:59:18;;;;;;;1.82;1.70;;;20.10;74.10;;;;;;1899698;75;21048;-62
2022/09/14 08:01:48;;;;;;;4.75;1.67;;;20.30;73.90;;;;;;1899677;75;21024;-61
2022/09/14 08:04:17;;;;;;;2.00;1.70;;;20.40;73.10;;;;;;1899606;75;21060;-62
2022/09/14 08:06:45;;;;;;;4.67;2.05;;;20.40;71.80;;;;;;1899661;75;21019;-61
2022/09/14 08:09:15;;;;;;;3.83;1.75;;;20.40;72.10;;;;;;1902545;74;21135;-62
2022/09/14 08:11:43;;;;;;;2.22;1.37;;;20.50;72.00;;;;;;1906136;75;21104;-61
2022/09/14 08:14:13;;;;;;;3.30;2.00;;;20.50;71.50;;;;;;1906116;75;21064;-62
2022/09/14 08:16:41;;;;;;;3.30;2.00;;;20.60;72.10;;;;;;1906251;75;21133;-62
2022/09/14 08:19:15;;;;;;;2.00;1.80;;;20.60;70.90;;;;;;1906271;75;21119;-61
2022/09/14 08:24:39;;;;;;;3.35;1.95;;;20.50;68.70;;;;;;1834208;77;21476;-63
2022/09/14 08:27:07;;;;;;;3.33;2.20;;;20.50;70.00;;;;;;1834391;78;21076;-63
2022/09/14 08:29:36;;;;;;;3.02;2.33;;;20.50;69.90;;;;;;1834094;78;21077;-63
2022/09/14 08:32:13;;;;;;;3.25;1.90;;;20.60;70.00;;;;;;1834133;78;21039;-64
2022/09/14 08:34:41;;;;;;;3.50;1.60;;;20.70;69.50;;;;;;1805957;74;21205;-63
2022/09/14 08:37:11;;;;;;;5.00;2.08;;;20.70;68.40;;;;;;1808373;78;21047;-63
2022/09/14 08:39:40;;;;;;;3.10;1.80;;;20.70;67.10;;;;;;1808254;79;21059;-63
2022/09/14 08:42:14;;;;;;;2.10;1.90;;;20.70;67.00;;;;;;1808303;78;21601;-63
2022/09/14 08:44:45;;;;;;;2.25;1.60;;;20.60;67.60;;;;;;1807772;78;21080;-63
2022/09/14 08:47:18;;;;;;;3.75;2.12;;;20.60;66.00;;;;;;1808122;78;21506;-63
2022/09/14 08:49:50;;;;;;;1.77;1.67;;;20.50;66.40;;;;;;1808249;78;21471;-63
2022/09/14 08:52:38;;;;;;;2.98;2.25;;;20.50;64.90;;;;;;1808262;79;21506;-63
2022/09/14 08:55:31;;;;;;;2.95;2.65;;;20.50;66.60;;;;;;1808217;78;21094;-63
2022/09/14 08:58:04;;;;;;;3.85;2.87;;;20.60;67.30;;;;;;1808471;79;21494;-63
2022/09/14 09:00:35;;;;;;;3.60;3.10;;;20.70;67.20;;;;;;1808311;78;21511;-63
2022/09/14 09:03:12;;;;;;;3.50;3.12;;;20.80;67.40;;;;;;1808140;78;21125;-63
2022/09/14 09:05:43;;;;;;;4.55;2.80;;;20.90;67.30;;;;;;1770765;81;21481;-63
2022/09/14 09:08:23;;;;;;;3.52;2.47;;;20.90;64.60;;;;;;1859533;77;21130;-63
2022/09/14 09:10:54;;;;;;;3.95;2.72;;;21.00;63.90;;;;;;1858664;77;21042;-62
2022/09/14 09:13:25;;;;;;;3.58;2.83;;;20.90;63.40;;;;;;1840228;77;21085;-63
2022/09/14 09:15:56;;;;;;;5.83;2.58;;;20.90;63.40;;;;;;1859702;77;21491;-63
2022/09/14 09:18:27;;;;;;;3.92;3.05;;;20.90;62.60;;;;;;1859504;77;21527;-63
2022/09/14 09:21:01;;;;;;;3.75;2.50;;;20.90;63.40;;;;;;1859144;77;21489;-63
2022/09/14 09:23:32;;;;;;;2.70;2.25;;;21.00;63.40;;;;;;1859072;77;21058;-63
2022/09/14 09:26:06;;;;;;;3.35;2.65;;;21.10;63.10;;;;;;1859638;77;21074;-63
2022/09/14 09:28:36;;;;;;;3.72;2.47;;;21.20;62.50;;;;;;1858043;77;21072;-65
2022/09/14 09:31:07;;;;;;;2.95;2.33;;;21.30;60.50;;;;;;1858103;77;21517;-62
2022/09/14 09:33:38;;;;;;;4.90;3.75;;;21.30;63.50;;;;;;1863473;76;21609;-62
2022/09/14 09:36:16;;;;;;;5.37;3.22;;;21.40;62.80;;;;;;1908630;75;21150;-63
2022/09/14 09:38:45;;;;;;;3.00;2.60;;;21.40;62.20;;;;;;1921318;75;21075;-60
2022/09/14 09:41:20;;;;;;;4.90;2.87;;;21.20;60.60;;;;;;1921565;74;21002;-60
2022/09/14 09:44:01;;;;;;;2.55;2.20;;;21.00;62.40;;;;;;1921495;74;21342;-60
2022/09/14 09:46:33;;;;;;;3.22;2.85;;;21.00;62.60;;;;;;1921303;75;21065;-60
2022/09/14 09:49:05;;;;;;;4.28;3.12;;;21.00;61.30;;;;;;1920572;75;21038;-59
2022/09/14 09:51:35;;;;;;;4.70;3.60;;;20.90;61.80;;;;;;1890675;75;21484;-66
2022/09/14 09:54:08;;;;;;;2.85;2.60;;;20.80;62.50;;;;;;1921338;75;21119;-66
2022/09/14 09:56:49;;;;;;;3.05;2.77;;;20.70;61.90;;;;;;1921506;75;21163;-61
2022/09/14 09:59:27;;;;;;;3.80;3.50;;;20.60;63.30;;;;;;1921315;74;21046;-60
2022/09/14 10:01:59;;;;;;;3.58;2.70;;;20.70;61.90;;;;;;1921642;75;21396;-61
2022/09/14 10:04:28;;;;;;;2.60;2.40;;;20.70;62.50;;;;;;1916247;75;22244;-63
2022/09/14 10:06:58;;;;;;;2.80;2.45;;;20.80;63.30;;;;;;1921442;75;21096;-64
2022/09/14 10:09:28;;;;;;;4.58;3.62;;;20.90;62.30;;;;;;1921503;73;21037;-62
2022/09/14 10:12:00;;;;;;;4.03;2.45;;;21.00;63.20;;;;;;1921474;75;21089;-61
2022/09/14 10:14:32;;;;;;;4.70;3.27;;;21.00;61.80;;;;;;1920515;75;21026;-62
2022/09/14 10:17:20;;;;;;;6.28;3.80;;;21.00;61.10;;;;;;1921559;75;21096;-62
2022/09/14 10:19:51;;;;;;;5.65;3.72;;;21.10;62.50;;;;;;1921582;75;21101;-63
2022/09/14 10:22:31;;;;;;;4.25;3.25;;;21.10;60.60;;;;;;1921433;75;21026;-60
2022/09/14 10:25:03;;;;;;;3.90;3.00;;;21.10;62.20;;;;;;1921606;75;21492;-64
2022/09/14 10:27:41;;;;;;;3.62;3.05;;;21.20;62.60;;;;;;1917341;75;21103;-62
2022/09/14 10:30:22;;;;;;;4.70;3.60;;;21.10;63.10;;;;;;1921427;75;21488;-62
2022/09/14 10:33:03;;;;;;;5.40;3.05;;;21.10;62.60;;;;;;1921495;75;20995;-63
2022/09/14 10:35:53;;;;;;;4.58;3.60;;;21.10;63.60;;;;;;1917171;74;21532;-61
2022/09/14 10:38:47;;;;;;;4.83;3.37;;;21.10;63.30;;;;;;1915884;75;21089;-65
2022/09/14 10:41:19;;;;;;;4.00;3.55;;;21.10;63.90;;;;;;1915854;75;21044;-63
2022/09/14 10:44:20;;;;;;;5.05;3.67;;;21.20;63.50;;;;;;1915664;75;21488;-61
2022/09/14 10:46:54;;;;;;;5.53;3.83;;;21.20;62.70;;;;;;1822379;78;21158;-61
2022/09/14 10:49:23;;;;;;;;;;;21.30;63.30;;;;;;1818719;79;21148;-61
2022/09/14 10:52:01;;;;;;;5.80;3.85;;;21.30;61.80;;;;;;1816109;78;20117;-60
2022/09/14 10:54:42;;;;;;;4.45;2.92;;;21.30;62.70;;;;;;1816144;78;21420;-60
2022/09/14 10:57:31;;;;;;;5.60;3.20;;;21.40;62.60;;;;;;1815724;79;21531;-62
2022/09/14 11:00:11;;;;;;;4.05;2.90;;;21.50;62.20;;;;;;1816244;79;21125;-63
2022/09/14 11:02:48;;;;;;;7.87;3.58;;;21.60;61.80;;;;;;1816311;79;21115;-59
2022/09/14 11:05:32;;;;;;;5.95;2.67;;;21.70;61.50;;;;;;1816198;79;21117;-63
2022/09/14 11:08:13;;;;;;;6.47;3.02;;;21.70;62.30;;;;;;1816313;79;21170;-64
2022/09/14 11:10:45;;;;;;;3.42;2.85;;;21.80;61.10;;;;;;1816171;79;21155;-64
2022/09/14 11:13:22;;;;;;;3.85;3.42;;;21.90;60.30;;;;;;1816157;79;21554;-63
2022/09/14 11:16:11;;;;;;;3.45;3.08;;;22.00;60.90;;;;;;1816159;79;21135;-62
2022/09/14 11:19:01;;;;;;;5.70;2.90;;;21.90;58.90;;;;;;1815829;77;21128;-68
2022/09/14 11:21:50;;;;;;;4.95;2.77;;;21.80;60.00;;;;;;1812792;79;21561;-61
2022/09/14 11:24:27;;;;;;;4.80;2.90;;;21.70;60.40;;;;;;1816162;79;21156;-59
2022/09/14 11:27:14;;;;;;;7.92;3.47;;;21.60;61.30;;;;;;1815612;78;21049;-64
2022/09/14 11:29:48;;;;;;;2.80;2.50;;;21.50;61.20;;;;;;1814568;78;21167;-66
2022/09/14 11:32:35;;;;;;;5.00;2.72;;;21.50;61.60;;;;;;1816077;79;21535;-68
2022/09/14 11:35:24;;;;;;;3.62;2.55;;;21.50;60.30;;;;;;1815472;79;21041;-70
2022/09/14 11:38:04;;;;;;;2.52;2.25;;;21.50;58.70;;;;;;1816448;79;21128;-76
2022/09/14 11:40:37;;;;;;;5.58;2.95;;;21.60;59.70;;;;;;1815925;79;21081;-73
2022/09/14 11:43:45;;;;;;;4.85;2.60;;;21.60;57.40;;;;;;1816184;79;21069;-65
2022/09/14 11:46:17;;;;;;;3.20;2.50;;;21.60;58.00;;;;;;1816148;78;21132;-62
2022/09/14 11:48:49;;;;;;;2.60;2.30;;;21.60;58.00;;;;;;1816128;79;21717;-63
2022/09/14 11:51:23;;;;;;;5.97;2.75;;;21.60;58.00;;;;;;1816129;79;21043;-71
2022/09/14 11:53:53;;;;;;;3.47;2.50;;;21.50;58.20;;;;;;1816355;79;21559;-68
2022/09/14 11:56:25;;;;;;;10.48;3.45;;;21.50;58.70;;;;;;1816189;79;21124;-67
2022/09/14 11:58:57;;;;;;;6.37;3.33;;;21.50;58.40;;;;;;1816340;79;21120;-73
2022/09/14 12:01:35;;;;;;;6.03;3.17;;;21.40;58.90;;;;;;1816311;79;21182;-70
2022/09/14 12:04:16;;;;;;;2.45;2.02;;;21.40;58.90;;;;;;1816429;79;21107;-69
2022/09/14 12:06:50;;;;;;;4.60;3.00;;;21.30;59.80;;;;;;1816335;79;21472;-69
2022/09/14 12:09:23;;;;;;;5.27;2.87;;;21.30;60.10;;;;;;1816561;79;21054;-63
2022/09/14 12:11:57;;;;;;;2.80;2.50;;;21.30;60.60;;;;;;1816167;79;21096;-75
2022/09/14 12:14:29;;;;;;;3.90;2.93;;;21.30;59.80;;;;;;1816533;79;21054;-66
2022/09/14 12:17:22;;;;;;;3.45;3.10;;;21.20;60.20;;;;;;1816123;79;21511;-70
2022/09/14 12:19:54;;;;;;;4.37;3.98;;;21.30;59.30;;;;;;1816098;79;21595;-69
2022/09/14 12:22:35;;;;;;;9.85;5.05;;;21.30;60.10;;;;;;1816154;79;21121;-68
2022/09/14 12:25:19;;;;;;;4.83;3.72;;;21.30;60.40;;;;;;1816106;79;21053;-66
2022/09/14 12:27:49;;;;;;;7.10;3.75;;;21.20;60.60;;;;;;1816324;79;21089;-67
2022/09/14 12:30:43;;;;;;;6.78;3.95;;;21.30;61.30;;;;;;1816327;79;21129;-67
2022/09/14 12:33:34;;;;;;;3.50;3.08;;;21.40;61.80;;;;;;1816288;79;21065;-64
2022/09/14 12:36:12;;;;;;;5.05;3.17;;;21.50;61.10;;;;;;1816141;79;21077;-66
2022/09/14 12:38:44;;;;;;;6.60;3.15;;;21.50;60.80;;;;;;1816312;79;21062;-67
2022/09/14 12:41:17;;;;;;;5.53;3.37;;;21.60;60.30;;;;;;1813131;78;21132;-65
2022/09/14 12:43:49;;;;;;;8.38;4.08;;;21.50;61.20;;;;;;1816357;79;21061;-71
2022/09/14 12:46:23;;;;;;;6.05;3.75;;;21.50;61.60;;;;;;1815896;78;21476;-70
2022/09/14 12:48:58;;;;;;;6.05;4.10;;;21.40;61.90;;;;;;1816146;79;21081;-66
2022/09/14 12:51:30;;;;;;;4.97;3.60;;;21.40;62.30;;;;;;1808726;79;21085;-68
2022/09/14 12:54:08;;;;;;;4.67;3.60;;;21.40;62.30;;;;;;1816054;79;21499;-64
2022/09/14 12:56:49;;;;;;;10.08;3.65;;;21.30;62.30;;;;;;1816178;79;21076;-64
2022/09/14 12:59:27;;;;;;;7.08;4.15;;;21.40;62.00;;;;;;1816387;79;21535;-63
2022/09/14 13:02:31;;;;;;;5.55;2.95;;;21.40;62.20;;;;;;1816362;79;21069;-65
2022/09/14 13:05:02;;;;;;;4.67;3.12;;;21.40;62.40;;;;;;1816283;79;21069;-65
2022/09/14 13:07:34;;;;;;;5.78;3.50;;;21.50;61.80;;;;;;1816370;79;21123;-70
2022/09/14 13:10:06;;;;;;;5.62;2.80;;;21.60;61.80;;;;;;1815970;79;21120;-64
2022/09/14 13:12:37;;;;;;;4.92;3.47;;;21.70;62.60;;;;;;1816264;79;21045;-65
2022/09/14 13:15:10;;;;;;;3.30;2.98;;;21.70;63.00;;;;;;1816326;79;21049;-67
2022/09/14 13:17:42;;;;;;;5.00;3.22;;;21.80;62.20;;;;;;1814593;79;21139;-66
2022/09/14 13:20:17;;;;;;;4.20;2.58;;;21.80;62.10;;;;;;1814277;79;21480;-69
2022/09/14 13:22:46;;;;;;;5.95;3.35;;;21.80;62.00;;;;;;1816246;79;21017;-67
2022/09/14 13:25:31;;;;;;;4.35;3.12;;;21.80;62.00;;;;;;1816215;79;21121;-64
2022/09/14 13:28:06;;;;;;;3.00;2.60;;;21.80;61.40;;;;;;1806472;79;21057;-71